Ontonagon, MI (49953)

6:25 PM EDT on July 03, 2015 (GMT -0400)
Mountain View Lodges, Silver City, MI / Porcupine Mountains Area | | Change Station
CLOSE
Current Station
Personal Weather Station
Location: Ontonagon, MI
Elevation: 587 ft
Nearby Weather Stations

Elev 587 ft 46.83 °N, 89.58 °W | Updated 4 minutes ago

Partly Cloudy
Partly Cloudy
75.5 °F
Feels Like 77 °F
N
1.0
Wind Variable Wind from NW
Gusts 1.0 mph

Today
High -- | Low -- °F
--% Chance of Precip.
Yesterday
High -- | Low -- °F
Precip. -- in
6:07 AM 9:54 PM
Waning Gibbous, 96% visible
Pressure 29.84 in
Visibility 8.0 miles
Clouds Clear
Heat Index 77 °F
Dew Point 64 °F
Humidity 67%
Rainfall 0.07 in
Snow Depth Not available.
UV 4 out of 12
Pollen 4.90 out of 12
Air Quality Not available.
Flu Activity Not available.
METAR KIWD 032215Z AUTO 25006KT 8SM CLR 23/17 A2984 RMK AO1

More Conditions Fewer Conditions

Pressure 29.84 in
Visibility 8.0 miles
Clouds Clear
Heat Index 77 °F
Dew Point 64 °F
Humidity 67%
Rainfall 0.07 in
Snow Depth Not available.
UV 4 out of 12
Pollen 4.90 out of 12
Air Quality Not available.
Flu Activity Not available.
METAR KIWD 032215Z AUTO 25006KT 8SM CLR 23/17 A2984 RMK AO1

More Conditions Fewer Conditions

10-Day Weather Forecast

×

Almanac

Astronomy

Jul. 03, 2015 Rise Set
Actual Time
Civil Twilight
Nautical Twilight
Astronomical Twilight
Moon
Length of Visible Light
Length of Day
Tomorrow will be .
, % of the Moon is Illuminated

Today's Extremes

State Highs State Lows

Community

WunderPhotos

Upload Photos

1,834,791 photos uploaded!

WunderBlogs® & News

Nearby

Air Quality

  Air Quality AQ Index Pollutant
Not available.

Snow Depth

Station Depth Elevation

Earthquake Activity

City Distance Mag. Time & Date
Minimum magnitude displayed is 2.5.

Coastal Water Temperatures

Place Temperature

Stations

Nearby Weather Stations

Station Location Temp. Windchill Dew Point Humidity Wind Precip. Elev Updated Type